sensor_id;sensor_type;location;lat;lon;timestamp;temperature;humidity
12815;DHT22;6472;52.328;13.070;2024-03-22T00:00:08;6.00;99.90
12815;DHT22;6472;52.328;13.070;2024-03-22T00:02:37;6.00;99.90
12815;DHT22;6472;52.328;13.070;2024-03-22T00:05:03;6.00;99.90
12815;DHT22;6472;52.328;13.070;2024-03-22T00:07:31;6.00;99.90
12815;DHT22;6472;52.328;13.070;2024-03-22T00:09:57;6.00;99.90
12815;DHT22;6472;52.328;13.070;2024-03-22T00:12:24;6.00;99.90
12815;DHT22;6472;52.328;13.070;2024-03-22T00:14:50;6.00;99.90
12815;DHT22;6472;52.328;13.070;2024-03-22T00:17:21;5.90;99.90
12815;DHT22;6472;52.328;13.070;2024-03-22T00:19:47;5.90;99.90
12815;DHT22;6472;52.328;13.070;2024-03-22T00:22:14;5.90;99.90
12815;DHT22;6472;52.328;13.070;2024-03-22T00:24:41;6.00;99.90
12815;DHT22;6472;52.328;13.070;2024-03-22T00:27:08;5.90;99.90
12815;DHT22;6472;52.328;13.070;2024-03-22T00:29:34;5.90;99.90
12815;DHT22;6472;52.328;13.070;2024-03-22T00:32:01;6.00;99.90
12815;DHT22;6472;52.328;13.070;2024-03-22T00:34:31;5.90;99.90
12815;DHT22;6472;52.328;13.070;2024-03-22T00:36:58;5.90;99.90
12815;DHT22;6472;52.328;13.070;2024-03-22T00:39:24;5.90;99.90
12815;DHT22;6472;52.328;13.070;2024-03-22T00:41:51;5.90;99.90
12815;DHT22;6472;52.328;13.070;2024-03-22T00:44:17;5.80;99.90
12815;DHT22;6472;52.328;13.070;2024-03-22T00:46:44;5.80;99.90
12815;DHT22;6472;52.328;13.070;2024-03-22T00:49:10;5.90;99.90
12815;DHT22;6472;52.328;13.070;2024-03-22T00:51:38;5.80;99.90
12815;DHT22;6472;52.328;13.070;2024-03-22T00:54:04;5.80;99.90
12815;DHT22;6472;52.328;13.070;2024-03-22T00:56:31;5.80;99.90
12815;DHT22;6472;52.328;13.070;2024-03-22T00:58:57;5.80;99.90
12815;DHT22;6472;52.328;13.070;2024-03-22T01:01:24;5.80;99.90
12815;DHT22;6472;52.328;13.070;2024-03-22T01:03:51;5.80;99.90
12815;DHT22;6472;52.328;13.070;2024-03-22T01:06:18;5.80;99.90
12815;DHT22;6472;52.328;13.070;2024-03-22T01:08:50;5.80;99.90
12815;DHT22;6472;52.328;13.070;2024-03-22T01:11:18;5.80;99.90
12815;DHT22;6472;52.328;13.070;2024-03-22T01:13:44;5.80;99.90
12815;DHT22;6472;52.328;13.070;2024-03-22T01:16:11;5.80;99.90
12815;DHT22;6472;52.328;13.070;2024-03-22T01:18:37;5.80;99.90
12815;DHT22;6472;52.328;13.070;2024-03-22T01:21:04;5.90;99.90
12815;DHT22;6472;52.328;13.070;2024-03-22T01:23:31;5.90;99.90
12815;DHT22;6472;52.328;13.070;2024-03-22T01:25:59;5.90;99.90
12815;DHT22;6472;52.328;13.070;2024-03-22T01:28:25;5.80;99.90
12815;DHT22;6472;52.328;13.070;2024-03-22T01:30:52;5.90;99.90
12815;DHT22;6472;52.328;13.070;2024-03-22T01:33:18;5.90;99.90
12815;DHT22;6472;52.328;13.070;2024-03-22T01:35:45;5.90;99.90
12815;DHT22;6472;52.328;13.070;2024-03-22T01:38:11;5.90;99.90
12815;DHT22;6472;52.328;13.070;2024-03-22T01:40:38;5.90;99.90
12815;DHT22;6472;52.328;13.070;2024-03-22T01:43:06;5.90;99.90
12815;DHT22;6472;52.328;13.070;2024-03-22T01:45:33;6.00;99.90
12815;DHT22;6472;52.328;13.070;2024-03-22T01:47:59;6.00;99.90
12815;DHT22;6472;52.328;13.070;2024-03-22T01:50:28;6.00;99.90
12815;DHT22;6472;52.328;13.070;2024-03-22T01:52:54;6.00;99.90
12815;DHT22;6472;52.328;13.070;2024-03-22T01:55:21;6.10;99.90
12815;DHT22;6472;52.328;13.070;2024-03-22T01:57:48;6.10;99.90
12815;DHT22;6472;52.328;13.070;2024-03-22T02:00:17;6.10;99.90
12815;DHT22;6472;52.328;13.070;2024-03-22T02:02:43;6.10;99.90
12815;DHT22;6472;52.328;13.070;2024-03-22T02:05:14;6.10;99.90
12815;DHT22;6472;52.328;13.070;2024-03-22T02:07:41;6.10;99.90
12815;DHT22;6472;52.328;13.070;2024-03-22T02:10:09;6.10;99.90
12815;DHT22;6472;52.328;13.070;2024-03-22T02:12:36;6.20;99.90
12815;DHT22;6472;52.328;13.070;2024-03-22T02:15:04;6.20;99.90
12815;DHT22;6472;52.328;13.070;2024-03-22T02:17:32;6.20;99.90
12815;DHT22;6472;52.328;13.070;2024-03-22T02:19:59;6.20;99.90
12815;DHT22;6472;52.328;13.070;2024-03-22T02:22:26;6.20;99.90
12815;DHT22;6472;52.328;13.070;2024-03-22T02:24:54;6.20;99.90
12815;DHT22;6472;52.328;13.070;2024-03-22T02:27:20;6.20;99.90
12815;DHT22;6472;52.328;13.070;2024-03-22T02:29:47;6.20;99.90
12815;DHT22;6472;52.328;13.070;2024-03-22T02:32:13;6.20;99.90
12815;DHT22;6472;52.328;13.070;2024-03-22T02:34:40;6.20;99.90
12815;DHT22;6472;52.328;13.070;2024-03-22T02:37:06;6.20;99.90
12815;DHT22;6472;52.328;13.070;2024-03-22T02:39:33;6.10;99.90
12815;DHT22;6472;52.328;13.070;2024-03-22T02:42:01;6.10;99.90
12815;DHT22;6472;52.328;13.070;2024-03-22T02:44:28;6.10;99.90
12815;DHT22;6472;52.328;13.070;2024-03-22T02:46:54;6.10;99.90
12815;DHT22;6472;52.328;13.070;2024-03-22T02:49:21;6.10;99.90
12815;DHT22;6472;52.328;13.070;2024-03-22T02:51:47;6.30;99.90
12815;DHT22;6472;52.328;13.070;2024-03-22T02:54:14;6.10;99.90
12815;DHT22;6472;52.328;13.070;2024-03-22T02:56:40;6.10;99.90
12815;DHT22;6472;52.328;13.070;2024-03-22T02:59:08;6.20;99.90
12815;DHT22;6472;52.328;13.070;2024-03-22T03:01:34;6.20;99.90
12815;DHT22;6472;52.328;13.070;2024-03-22T03:04:01;6.20;99.90
12815;DHT22;6472;52.328;13.070;2024-03-22T03:06:27;6.20;99.90
12815;DHT22;6472;52.328;13.070;2024-03-22T03:08:54;6.30;99.90
12815;DHT22;6472;52.328;13.070;2024-03-22T03:11:20;6.20;99.90
12815;DHT22;6472;52.328;13.070;2024-03-22T03:13:47;6.20;99.90
12815;DHT22;6472;52.328;13.070;2024-03-22T03:16:15;6.20;99.90
12815;DHT22;6472;52.328;13.070;2024-03-22T03:18:42;6.30;99.90
12815;DHT22;6472;52.328;13.070;2024-03-22T03:21:08;6.20;99.90
12815;DHT22;6472;52.328;13.070;2024-03-22T03:23:35;6.20;99.90
12815;DHT22;6472;52.328;13.070;2024-03-22T03:26:01;6.20;99.90
12815;DHT22;6472;52.328;13.070;2024-03-22T03:28:28;6.20;99.90
12815;DHT22;6472;52.328;13.070;2024-03-22T03:30:54;6.20;99.90
12815;DHT22;6472;52.328;13.070;2024-03-22T03:33:23;6.20;99.90
12815;DHT22;6472;52.328;13.070;2024-03-22T03:35:49;6.20;99.90
12815;DHT22;6472;52.328;13.070;2024-03-22T03:38:16;6.10;99.90
12815;DHT22;6472;52.328;13.070;2024-03-22T03:40:42;6.10;99.90
12815;DHT22;6472;52.328;13.070;2024-03-22T03:43:09;6.10;99.90
12815;DHT22;6472;52.328;13.070;2024-03-22T03:45:36;6.10;99.90
12815;DHT22;6472;52.328;13.070;2024-03-22T03:48:03;6.10;99.90
12815;DHT22;6472;52.328;13.070;2024-03-22T03:50:31;6.10;99.90
12815;DHT22;6472;52.328;13.070;2024-03-22T03:52:58;6.10;99.90
12815;DHT22;6472;52.328;13.070;2024-03-22T03:55:24;6.10;99.90
12815;DHT22;6472;52.328;13.070;2024-03-22T03:57:51;6.20;99.90
12815;DHT22;6472;52.328;13.070;2024-03-22T04:00:19;6.30;99.90
12815;DHT22;6472;52.328;13.070;2024-03-22T04:02:48;6.20;99.90
12815;DHT22;6472;52.328;13.070;2024-03-22T04:05:15;6.20;99.90
12815;DHT22;6472;52.328;13.070;2024-03-22T04:07:47;6.20;99.90
12815;DHT22;6472;52.328;13.070;2024-03-22T04:10:13;6.20;99.90
12815;DHT22;6472;52.328;13.070;2024-03-22T04:12:40;6.30;99.90
12815;DHT22;6472;52.328;13.070;2024-03-22T04:15:07;6.30;99.90
12815;DHT22;6472;52.328;13.070;2024-03-22T04:17:34;6.30;99.90
12815;DHT22;6472;52.328;13.070;2024-03-22T04:20:00;6.30;99.90
12815;DHT22;6472;52.328;13.070;2024-03-22T04:22:28;6.40;99.90
12815;DHT22;6472;52.328;13.070;2024-03-22T04:24:55;6.40;99.90
12815;DHT22;6472;52.328;13.070;2024-03-22T04:27:22;6.40;99.90
12815;DHT22;6472;52.328;13.070;2024-03-22T04:29:48;6.40;99.90
12815;DHT22;6472;52.328;13.070;2024-03-22T04:32:15;6.40;99.90
12815;DHT22;6472;52.328;13.070;2024-03-22T04:34:41;6.40;99.90
12815;DHT22;6472;52.328;13.070;2024-03-22T04:37:09;6.40;99.90
12815;DHT22;6472;52.328;13.070;2024-03-22T04:39:37;6.40;99.90
12815;DHT22;6472;52.328;13.070;2024-03-22T04:42:06;6.50;99.90
12815;DHT22;6472;52.328;13.070;2024-03-22T04:44:32;6.50;99.90
12815;DHT22;6472;52.328;13.070;2024-03-22T04:46:59;6.50;99.90
12815;DHT22;6472;52.328;13.070;2024-03-22T04:49:25;6.50;99.90
12815;DHT22;6472;52.328;13.070;2024-03-22T04:51:52;6.50;99.90
12815;DHT22;6472;52.328;13.070;2024-03-22T04:54:19;6.50;99.90
12815;DHT22;6472;52.328;13.070;2024-03-22T04:56:45;6.50;99.90
12815;DHT22;6472;52.328;13.070;2024-03-22T04:59:14;6.50;99.90
12815;DHT22;6472;52.328;13.070;2024-03-22T05:01:40;6.50;99.90
12815;DHT22;6472;52.328;13.070;2024-03-22T05:04:07;6.50;99.90
12815;DHT22;6472;52.328;13.070;2024-03-22T05:06:33;6.50;99.90
12815;DHT22;6472;52.328;13.070;2024-03-22T05:09:00;6.60;99.90
12815;DHT22;6472;52.328;13.070;2024-03-22T05:11:26;6.60;99.90
12815;DHT22;6472;52.328;13.070;2024-03-22T05:13:53;6.60;99.90
12815;DHT22;6472;52.328;13.070;2024-03-22T05:16:20;6.60;99.90
12815;DHT22;6472;52.328;13.070;2024-03-22T05:18:49;6.60;99.90
12815;DHT22;6472;52.328;13.070;2024-03-22T05:21:16;6.60;99.90
12815;DHT22;6472;52.328;13.070;2024-03-22T05:23:43;6.70;99.90
12815;DHT22;6472;52.328;13.070;2024-03-22T05:26:09;6.70;99.90
12815;DHT22;6472;52.328;13.070;2024-03-22T05:28:36;6.70;99.90
12815;DHT22;6472;52.328;13.070;2024-03-22T05:31:02;6.70;99.90
12815;DHT22;6472;52.328;13.070;2024-03-22T05:33:31;6.70;99.90
12815;DHT22;6472;52.328;13.070;2024-03-22T05:35:57;6.70;99.90
12815;DHT22;6472;52.328;13.070;2024-03-22T05:38:24;6.80;99.90
12815;DHT22;6472;52.328;13.070;2024-03-22T05:40:50;6.80;99.90
12815;DHT22;6472;52.328;13.070;2024-03-22T05:43:17;6.90;99.90
12815;DHT22;6472;52.328;13.070;2024-03-22T05:45:43;6.90;99.90
12815;DHT22;6472;52.328;13.070;2024-03-22T05:48:10;6.90;99.90
12815;DHT22;6472;52.328;13.070;2024-03-22T05:50:38;7.00;99.90
12815;DHT22;6472;52.328;13.070;2024-03-22T05:53:05;7.00;99.90
12815;DHT22;6472;52.328;13.070;2024-03-22T05:55:31;7.10;99.90
12815;DHT22;6472;52.328;13.070;2024-03-22T05:57:58;7.20;99.90
12815;DHT22;6472;52.328;13.070;2024-03-22T06:00:24;7.20;99.90
12815;DHT22;6472;52.328;13.070;2024-03-22T06:02:51;7.30;99.90
12815;DHT22;6472;52.328;13.070;2024-03-22T06:05:18;7.30;99.90
12815;DHT22;6472;52.328;13.070;2024-03-22T06:07:46;7.40;99.90
12815;DHT22;6472;52.328;13.070;2024-03-22T06:10:12;7.50;99.90
12815;DHT22;6472;52.328;13.070;2024-03-22T06:12:39;7.50;99.90
12815;DHT22;6472;52.328;13.070;2024-03-22T06:15:07;7.50;99.90
12815;DHT22;6472;52.328;13.070;2024-03-22T06:17:34;7.60;99.90
12815;DHT22;6472;52.328;13.070;2024-03-22T06:20:00;7.70;99.90
12815;DHT22;6472;52.328;13.070;2024-03-22T06:22:27;7.80;99.90
12815;DHT22;6472;52.328;13.070;2024-03-22T06:24:55;7.80;99.90
12815;DHT22;6472;52.328;13.070;2024-03-22T06:27:22;7.90;99.90
12815;DHT22;6472;52.328;13.070;2024-03-22T06:29:48;7.90;99.90
12815;DHT22;6472;52.328;13.070;2024-03-22T06:32:15;7.90;99.90
12815;DHT22;6472;52.328;13.070;2024-03-22T06:34:41;8.00;99.90
12815;DHT22;6472;52.328;13.070;2024-03-22T06:37:09;8.00;99.90
12815;DHT22;6472;52.328;13.070;2024-03-22T06:39:35;8.00;99.90
12815;DHT22;6472;52.328;13.070;2024-03-22T06:42:04;8.10;99.90
12815;DHT22;6472;52.328;13.070;2024-03-22T06:44:30;8.20;99.90
12815;DHT22;6472;52.328;13.070;2024-03-22T06:46:57;8.20;99.90
12815;DHT22;6472;52.328;13.070;2024-03-22T06:49:23;8.30;99.90
12815;DHT22;6472;52.328;13.070;2024-03-22T06:51:51;8.40;99.90
12815;DHT22;6472;52.328;13.070;2024-03-22T06:54:17;8.50;99.90
12815;DHT22;6472;52.328;13.070;2024-03-22T06:56:44;8.50;99.90
12815;DHT22;6472;52.328;13.070;2024-03-22T06:59:11;8.50;99.90
12815;DHT22;6472;52.328;13.070;2024-03-22T07:01:38;8.60;99.90
12815;DHT22;6472;52.328;13.070;2024-03-22T07:04:04;8.70;99.90
12815;DHT22;6472;52.328;13.070;2024-03-22T07:06:31;8.80;99.90
12815;DHT22;6472;52.328;13.070;2024-03-22T07:08:57;8.90;99.90
12815;DHT22;6472;52.328;13.070;2024-03-22T07:11:24;9.10;99.90
12815;DHT22;6472;52.328;13.070;2024-03-22T07:13:50;9.10;99.90
12815;DHT22;6472;52.328;13.070;2024-03-22T07:16:18;9.10;99.90
12815;DHT22;6472;52.328;13.070;2024-03-22T07:18:44;9.30;99.90
12815;DHT22;6472;52.328;13.070;2024-03-22T07:21:14;9.30;99.90
12815;DHT22;6472;52.328;13.070;2024-03-22T07:23:39;9.40;99.90
12815;DHT22;6472;52.328;13.070;2024-03-22T07:26:06;9.50;99.90
12815;DHT22;6472;52.328;13.070;2024-03-22T07:28:33;9.70;99.90
12815;DHT22;6472;52.328;13.070;2024-03-22T07:31:00;9.60;99.90
12815;DHT22;6472;52.328;13.070;2024-03-22T07:33:28;9.80;99.90
12815;DHT22;6472;52.328;13.070;2024-03-22T07:35:55;9.90;99.90
12815;DHT22;6472;52.328;13.070;2024-03-22T07:38:21;9.90;99.90
12815;DHT22;6472;52.328;13.070;2024-03-22T07:40:48;9.90;99.90
12815;DHT22;6472;52.328;13.070;2024-03-22T07:43:14;10.00;99.90
12815;DHT22;6472;52.328;13.070;2024-03-22T07:45:42;10.10;99.90
12815;DHT22;6472;52.328;13.070;2024-03-22T07:48:08;10.10;99.90
12815;DHT22;6472;52.328;13.070;2024-03-22T07:50:37;10.20;99.90
12815;DHT22;6472;52.328;13.070;2024-03-22T07:53:03;10.10;99.90
12815;DHT22;6472;52.328;13.070;2024-03-22T07:55:31;10.10;99.90
12815;DHT22;6472;52.328;13.070;2024-03-22T07:57:56;10.30;99.90
12815;DHT22;6472;52.328;13.070;2024-03-22T08:00:23;10.30;99.90
12815;DHT22;6472;52.328;13.070;2024-03-22T08:02:50;10.40;99.90
12815;DHT22;6472;52.328;13.070;2024-03-22T08:05:17;10.40;99.90
12815;DHT22;6472;52.328;13.070;2024-03-22T08:07:45;10.40;99.90
12815;DHT22;6472;52.328;13.070;2024-03-22T08:10:12;10.50;99.90
12815;DHT22;6472;52.328;13.070;2024-03-22T08:12:38;10.40;99.90
12815;DHT22;6472;52.328;13.070;2024-03-22T08:15:06;10.50;99.90
12815;DHT22;6472;52.328;13.070;2024-03-22T08:17:32;10.60;99.90
12815;DHT22;6472;52.328;13.070;2024-03-22T08:19:59;10.60;99.90
12815;DHT22;6472;52.328;13.070;2024-03-22T08:22:26;10.70;99.90
12815;DHT22;6472;52.328;13.070;2024-03-22T08:24:53;10.70;99.90
12815;DHT22;6472;52.328;13.070;2024-03-22T08:27:21;10.70;99.90
12815;DHT22;6472;52.328;13.070;2024-03-22T08:29:47;10.90;99.90
12815;DHT22;6472;52.328;13.070;2024-03-22T08:32:14;10.90;99.90
12815;DHT22;6472;52.328;13.070;2024-03-22T08:34:40;10.90;99.90
12815;DHT22;6472;52.328;13.070;2024-03-22T08:37:07;10.90;99.90
12815;DHT22;6472;52.328;13.070;2024-03-22T08:39:35;10.80;99.90
12815;DHT22;6472;52.328;13.070;2024-03-22T08:42:03;10.70;99.90
12815;DHT22;6472;52.328;13.070;2024-03-22T08:44:30;10.80;99.90
12815;DHT22;6472;52.328;13.070;2024-03-22T08:46:58;10.80;99.90
12815;DHT22;6472;52.328;13.070;2024-03-22T08:49:24;10.80;99.90
12815;DHT22;6472;52.328;13.070;2024-03-22T08:51:51;10.70;99.90
12815;DHT22;6472;52.328;13.070;2024-03-22T08:54:17;10.70;99.90
12815;DHT22;6472;52.328;13.070;2024-03-22T08:56:44;10.80;99.90
12815;DHT22;6472;52.328;13.070;2024-03-22T08:59:11;10.70;99.90
12815;DHT22;6472;52.328;13.070;2024-03-22T09:01:38;10.70;99.90
12815;DHT22;6472;52.328;13.070;2024-03-22T09:04:05;10.70;99.90
12815;DHT22;6472;52.328;13.070;2024-03-22T09:06:32;10.80;99.90
12815;DHT22;6472;52.328;13.070;2024-03-22T09:08:58;10.80;99.90
12815;DHT22;6472;52.328;13.070;2024-03-22T09:11:25;11.00;99.90
12815;DHT22;6472;52.328;13.070;2024-03-22T09:13:52;11.10;99.90
12815;DHT22;6472;52.328;13.070;2024-03-22T09:16:21;11.30;99.90
12815;DHT22;6472;52.328;13.070;2024-03-22T09:18:48;11.50;99.90
12815;DHT22;6472;52.328;13.070;2024-03-22T09:21:14;11.60;99.90
12815;DHT22;6472;52.328;13.070;2024-03-22T09:23:41;11.60;99.90
12815;DHT22;6472;52.328;13.070;2024-03-22T09:26:07;11.70;99.90
12815;DHT22;6472;52.328;13.070;2024-03-22T09:28:34;11.70;99.90
12815;DHT22;6472;52.328;13.070;2024-03-22T09:31:03;12.00;99.90
12815;DHT22;6472;52.328;13.070;2024-03-22T09:33:32;12.20;99.90
12815;DHT22;6472;52.328;13.070;2024-03-22T09:35:58;12.50;99.90
12815;DHT22;6472;52.328;13.070;2024-03-22T09:38:26;12.80;99.90
12815;DHT22;6472;52.328;13.070;2024-03-22T09:40:52;12.90;99.90
12815;DHT22;6472;52.328;13.070;2024-03-22T09:43:21;12.90;99.90
12815;DHT22;6472;52.328;13.070;2024-03-22T09:45:47;13.00;99.90
12815;DHT22;6472;52.328;13.070;2024-03-22T09:48:15;13.00;99.90
12815;DHT22;6472;52.328;13.070;2024-03-22T09:50:45;12.90;99.90
12815;DHT22;6472;52.328;13.070;2024-03-22T09:53:13;12.90;99.90
12815;DHT22;6472;52.328;13.070;2024-03-22T09:55:39;12.80;99.90
12815;DHT22;6472;52.328;13.070;2024-03-22T09:58:09;12.80;99.90
12815;DHT22;6472;52.328;13.070;2024-03-22T10:00:35;12.70;99.90
12815;DHT22;6472;52.328;13.070;2024-03-22T10:03:04;12.60;99.90
12815;DHT22;6472;52.328;13.070;2024-03-22T10:05:30;12.50;99.90
12815;DHT22;6472;52.328;13.070;2024-03-22T10:07:58;12.50;99.90
12815;DHT22;6472;52.328;13.070;2024-03-22T10:10:25;12.60;99.90
12815;DHT22;6472;52.328;13.070;2024-03-22T10:12:52;12.70;99.90
12815;DHT22;6472;52.328;13.070;2024-03-22T10:15:19;12.70;99.90
12815;DHT22;6472;52.328;13.070;2024-03-22T10:17:46;12.70;99.90
12815;DHT22;6472;52.328;13.070;2024-03-22T10:20:13;12.80;99.90
12815;DHT22;6472;52.328;13.070;2024-03-22T10:22:42;12.90;99.90
12815;DHT22;6472;52.328;13.070;2024-03-22T10:25:09;12.90;99.90
12815;DHT22;6472;52.328;13.070;2024-03-22T10:27:38;12.90;99.90
12815;DHT22;6472;52.328;13.070;2024-03-22T10:30:08;13.00;99.90
12815;DHT22;6472;52.328;13.070;2024-03-22T10:32:36;13.20;99.90
12815;DHT22;6472;52.328;13.070;2024-03-22T10:35:03;13.50;99.90
12815;DHT22;6472;52.328;13.070;2024-03-22T10:37:32;13.80;99.90
12815;DHT22;6472;52.328;13.070;2024-03-22T10:40:01;14.00;99.90
12815;DHT22;6472;52.328;13.070;2024-03-22T10:42:34;14.30;99.90
12815;DHT22;6472;52.328;13.070;2024-03-22T10:45:01;14.50;99.90
12815;DHT22;6472;52.328;13.070;2024-03-22T10:47:30;14.80;99.90
12815;DHT22;6472;52.328;13.070;2024-03-22T10:50:01;14.90;99.90
12815;DHT22;6472;52.328;13.070;2024-03-22T10:52:33;14.90;99.90
12815;DHT22;6472;52.328;13.070;2024-03-22T10:55:01;14.60;99.90
12815;DHT22;6472;52.328;13.070;2024-03-22T10:57:30;14.40;99.90
12815;DHT22;6472;52.328;13.070;2024-03-22T10:59:58;14.30;99.90
12815;DHT22;6472;52.328;13.070;2024-03-22T11:02:27;14.20;99.90
12815;DHT22;6472;52.328;13.070;2024-03-22T11:04:56;14.10;99.90
12815;DHT22;6472;52.328;13.070;2024-03-22T11:07:23;14.00;99.90
12815;DHT22;6472;52.328;13.070;2024-03-22T11:09:56;13.90;99.90
12815;DHT22;6472;52.328;13.070;2024-03-22T11:12:24;13.80;99.90
12815;DHT22;6472;52.328;13.070;2024-03-22T11:14:51;13.70;99.90
12815;DHT22;6472;52.328;13.070;2024-03-22T11:17:20;13.60;99.90
12815;DHT22;6472;52.328;13.070;2024-03-22T11:19:48;13.70;99.90
12815;DHT22;6472;52.328;13.070;2024-03-22T11:22:15;13.80;99.90
12815;DHT22;6472;52.328;13.070;2024-03-22T11:24:42;13.90;99.90
12815;DHT22;6472;52.328;13.070;2024-03-22T11:27:09;13.90;99.90
12815;DHT22;6472;52.328;13.070;2024-03-22T11:29:36;14.00;99.90
12815;DHT22;6472;52.328;13.070;2024-03-22T11:32:05;14.00;99.90
12815;DHT22;6472;52.328;13.070;2024-03-22T11:34:32;14.00;99.90
12815;DHT22;6472;52.328;13.070;2024-03-22T11:37:00;14.00;99.90
12815;DHT22;6472;52.328;13.070;2024-03-22T11:39:26;14.00;99.90
12815;DHT22;6472;52.328;13.070;2024-03-22T11:41:54;13.90;99.90
12815;DHT22;6472;52.328;13.070;2024-03-22T11:44:21;13.80;99.90
12815;DHT22;6472;52.328;13.070;2024-03-22T11:46:51;13.70;99.90
12815;DHT22;6472;52.328;13.070;2024-03-22T11:49:18;13.60;99.90
12815;DHT22;6472;52.328;13.070;2024-03-22T11:51:47;13.40;99.90
12815;DHT22;6472;52.328;13.070;2024-03-22T11:54:13;13.30;99.90
12815;DHT22;6472;52.328;13.070;2024-03-22T11:56:40;13.10;99.90
12815;DHT22;6472;52.328;13.070;2024-03-22T11:59:06;13.00;99.90
12815;DHT22;6472;52.328;13.070;2024-03-22T12:01:33;13.00;99.90
12815;DHT22;6472;52.328;13.070;2024-03-22T12:03:59;13.00;99.90
12815;DHT22;6472;52.328;13.070;2024-03-22T12:06:27;13.00;99.90
12815;DHT22;6472;52.328;13.070;2024-03-22T12:08:54;13.00;99.90
12815;DHT22;6472;52.328;13.070;2024-03-22T12:11:21;13.00;99.90
12815;DHT22;6472;52.328;13.070;2024-03-22T12:13:47;13.00;99.90
12815;DHT22;6472;52.328;13.070;2024-03-22T12:16:14;13.00;99.90
12815;DHT22;6472;52.328;13.070;2024-03-22T12:18:40;13.00;99.90
12815;DHT22;6472;52.328;13.070;2024-03-22T12:21:07;12.90;99.90
12815;DHT22;6472;52.328;13.070;2024-03-22T12:23:33;12.80;99.90
12815;DHT22;6472;52.328;13.070;2024-03-22T12:26:02;12.80;99.90
12815;DHT22;6472;52.328;13.070;2024-03-22T12:28:28;12.80;99.90
12815;DHT22;6472;52.328;13.070;2024-03-22T12:30:55;12.70;99.90
12815;DHT22;6472;52.328;13.070;2024-03-22T12:33:22;12.70;99.90
12815;DHT22;6472;52.328;13.070;2024-03-22T12:35:49;12.70;99.90
12815;DHT22;6472;52.328;13.070;2024-03-22T12:38:15;12.50;99.90
12815;DHT22;6472;52.328;13.070;2024-03-22T12:40:42;12.50;99.90
12815;DHT22;6472;52.328;13.070;2024-03-22T12:43:10;12.50;99.90
12815;DHT22;6472;52.328;13.070;2024-03-22T12:45:37;12.40;99.90
12815;DHT22;6472;52.328;13.070;2024-03-22T12:48:05;12.30;99.90
12815;DHT22;6472;52.328;13.070;2024-03-22T12:50:32;12.30;99.90
12815;DHT22;6472;52.328;13.070;2024-03-22T12:52:59;12.20;99.90
12815;DHT22;6472;52.328;13.070;2024-03-22T12:55:26;12.00;99.90
12815;DHT22;6472;52.328;13.070;2024-03-22T12:57:54;12.00;99.90
12815;DHT22;6472;52.328;13.070;2024-03-22T13:00:22;11.90;99.90
12815;DHT22;6472;52.328;13.070;2024-03-22T13:02:48;12.00;99.90
12815;DHT22;6472;52.328;13.070;2024-03-22T13:05:16;11.80;99.90
12815;DHT22;6472;52.328;13.070;2024-03-22T13:07:42;11.70;99.90
12815;DHT22;6472;52.328;13.070;2024-03-22T13:10:09;11.80;99.90
12815;DHT22;6472;52.328;13.070;2024-03-22T13:12:36;11.80;99.90
12815;DHT22;6472;52.328;13.070;2024-03-22T13:15:03;11.70;99.90
12815;DHT22;6472;52.328;13.070;2024-03-22T13:17:31;11.70;99.90
12815;DHT22;6472;52.328;13.070;2024-03-22T13:19:58;11.70;99.90
12815;DHT22;6472;52.328;13.070;2024-03-22T13:22:25;11.70;99.90
12815;DHT22;6472;52.328;13.070;2024-03-22T13:24:52;11.80;99.90
12815;DHT22;6472;52.328;13.070;2024-03-22T13:27:18;11.80;99.90
12815;DHT22;6472;52.328;13.070;2024-03-22T13:29:48;11.80;99.90
12815;DHT22;6472;52.328;13.070;2024-03-22T13:32:14;11.80;99.90
12815;DHT22;6472;52.328;13.070;2024-03-22T13:34:43;11.80;99.90
12815;DHT22;6472;52.328;13.070;2024-03-22T13:37:09;11.90;99.90
12815;DHT22;6472;52.328;13.070;2024-03-22T13:39:36;12.00;99.90
12815;DHT22;6472;52.328;13.070;2024-03-22T13:42:03;12.10;99.90
12815;DHT22;6472;52.328;13.070;2024-03-22T13:44:32;12.20;99.90
12815;DHT22;6472;52.328;13.070;2024-03-22T13:46:58;12.20;99.90
12815;DHT22;6472;52.328;13.070;2024-03-22T13:49:26;12.30;99.90
12815;DHT22;6472;52.328;13.070;2024-03-22T13:51:53;12.30;99.90
12815;DHT22;6472;52.328;13.070;2024-03-22T13:54:20;12.30;99.90
12815;DHT22;6472;52.328;13.070;2024-03-22T13:56:47;12.40;99.90
12815;DHT22;6472;52.328;13.070;2024-03-22T13:59:14;12.40;99.90
12815;DHT22;6472;52.328;13.070;2024-03-22T14:01:42;12.40;99.90
12815;DHT22;6472;52.328;13.070;2024-03-22T14:04:11;12.50;99.90
12815;DHT22;6472;52.328;13.070;2024-03-22T14:06:38;12.50;99.90
12815;DHT22;6472;52.328;13.070;2024-03-22T14:09:06;12.40;99.90
12815;DHT22;6472;52.328;13.070;2024-03-22T14:11:36;12.50;99.90
12815;DHT22;6472;52.328;13.070;2024-03-22T14:14:03;12.50;99.90
12815;DHT22;6472;52.328;13.070;2024-03-22T14:16:29;12.50;99.90
12815;DHT22;6472;52.328;13.070;2024-03-22T14:18:56;12.40;99.90
12815;DHT22;6472;52.328;13.070;2024-03-22T14:21:22;12.40;99.90
12815;DHT22;6472;52.328;13.070;2024-03-22T14:23:50;12.30;99.90
12815;DHT22;6472;52.328;13.070;2024-03-22T14:26:18;12.30;99.90
12815;DHT22;6472;52.328;13.070;2024-03-22T14:28:45;12.20;99.90
12815;DHT22;6472;52.328;13.070;2024-03-22T14:31:13;12.20;99.90
12815;DHT22;6472;52.328;13.070;2024-03-22T14:33:40;12.20;99.90
12815;DHT22;6472;52.328;13.070;2024-03-22T14:36:07;12.30;99.90
12815;DHT22;6472;52.328;13.070;2024-03-22T14:38:35;12.30;99.90
12815;DHT22;6472;52.328;13.070;2024-03-22T14:41:02;12.20;99.90
12815;DHT22;6472;52.328;13.070;2024-03-22T14:43:31;12.20;99.90
12815;DHT22;6472;52.328;13.070;2024-03-22T14:46:00;12.20;99.90
12815;DHT22;6472;52.328;13.070;2024-03-22T14:48:28;12.20;99.90
12815;DHT22;6472;52.328;13.070;2024-03-22T14:50:55;12.20;99.90
12815;DHT22;6472;52.328;13.070;2024-03-22T14:53:22;12.00;99.90
12815;DHT22;6472;52.328;13.070;2024-03-22T14:55:52;12.00;99.90
12815;DHT22;6472;52.328;13.070;2024-03-22T14:58:20;11.90;99.90
12815;DHT22;6472;52.328;13.070;2024-03-22T15:00:52;11.90;99.90
12815;DHT22;6472;52.328;13.070;2024-03-22T15:03:20;11.90;99.90
12815;DHT22;6472;52.328;13.070;2024-03-22T15:05:46;11.80;99.90
12815;DHT22;6472;52.328;13.070;2024-03-22T15:08:13;11.80;99.90
12815;DHT22;6472;52.328;13.070;2024-03-22T15:10:39;11.90;99.90
12815;DHT22;6472;52.328;13.070;2024-03-22T15:13:07;11.90;99.90
12815;DHT22;6472;52.328;13.070;2024-03-22T15:15:33;11.90;99.90
12815;DHT22;6472;52.328;13.070;2024-03-22T15:18:01;11.80;99.90
12815;DHT22;6472;52.328;13.070;2024-03-22T15:20:28;11.80;99.90
12815;DHT22;6472;52.328;13.070;2024-03-22T15:22:55;11.80;99.90
12815;DHT22;6472;52.328;13.070;2024-03-22T15:25:21;11.70;99.90
12815;DHT22;6472;52.328;13.070;2024-03-22T15:27:48;11.70;99.90
12815;DHT22;6472;52.328;13.070;2024-03-22T15:30:15;11.60;99.90
12815;DHT22;6472;52.328;13.070;2024-03-22T15:32:43;11.70;99.90
12815;DHT22;6472;52.328;13.070;2024-03-22T15:35:11;11.60;99.90